createdAt,value
2022-08-12T00:05:08.964Z,100.00
2022-08-12T00:11:12.441Z,100.00
2022-08-12T00:18:03.525Z,100.00
2022-08-12T00:25:03.339Z,100.00
2022-08-12T00:31:51.255Z,100.00
2022-08-12T00:38:35.590Z,100.00
2022-08-12T00:45:35.813Z,100.00
2022-08-12T00:52:00.705Z,100.00
2022-08-12T00:58:42.334Z,100.00
2022-08-12T01:05:44.291Z,100.00
2022-08-12T01:12:09.281Z,100.00
2022-08-12T01:18:34.901Z,100.00
2022-08-12T01:25:32.987Z,100.00
2022-08-12T01:32:12.419Z,100.00
2022-08-12T01:39:05.744Z,100.00
2022-08-12T01:46:04.434Z,100.00
2022-08-12T01:52:42.768Z,100.00
2022-08-12T01:59:12.627Z,100.00
2022-08-12T02:06:35.926Z,100.00
2022-08-12T02:13:48.321Z,100.00
2022-08-12T02:20:51.389Z,100.00
2022-08-12T02:27:39.293Z,100.00
2022-08-12T02:34:42.778Z,100.00
2022-08-12T02:41:07.241Z,100.00
2022-08-12T02:48:08.657Z,100.00
2022-08-12T02:54:28.385Z,100.00
2022-08-12T03:01:03.657Z,100.00
2022-08-12T03:08:14.294Z,100.00
2022-08-12T03:15:35.173Z,100.00
2022-08-12T03:22:19.302Z,100.00
2022-08-12T03:29:11.807Z,100.00
2022-08-12T03:35:56.927Z,100.00
2022-08-12T03:43:05.289Z,100.00
2022-08-12T03:49:44.667Z,100.00
2022-08-12T03:57:06.358Z,100.00
2022-08-12T04:04:13.163Z,100.00
2022-08-12T04:11:02.878Z,100.00
2022-08-12T04:17:09.453Z,100.00
2022-08-12T04:23:46.232Z,100.00
2022-08-12T04:30:40.330Z,100.00
2022-08-12T04:36:38.324Z,100.00
2022-08-12T04:44:00.148Z,100.00
2022-08-12T04:50:35.265Z,100.00
2022-08-12T04:57:13.255Z,100.00
2022-08-12T05:04:16.310Z,100.00
2022-08-12T05:11:14.526Z,100.00
2022-08-12T05:17:55.319Z,100.00
2022-08-12T05:24:58.764Z,99.11
2022-08-12T05:31:47.786Z,98.07
2022-08-12T05:38:13.434Z,97.01
2022-08-12T05:45:06.309Z,96.19
2022-08-12T05:52:09.964Z,95.46
2022-08-12T05:58:55.462Z,94.35
2022-08-12T06:05:10.663Z,93.86
2022-08-12T06:11:31.660Z,93.45
2022-08-12T06:17:56.213Z,92.81
2022-08-12T06:23:42.518Z,92.02
2022-08-12T06:30:09.042Z,90.48
2022-08-12T06:35:52.371Z,89.72
2022-08-12T06:42:31.840Z,89.15
2022-08-12T06:48:07.170Z,88.51
2022-08-12T06:54:00.955Z,87.82
2022-08-12T07:00:13.206Z,87.49
2022-08-12T07:06:42.360Z,86.84
2022-08-12T07:14:02.459Z,86.08
2022-08-12T07:20:04.487Z,85.77
2022-08-12T07:25:41.709Z,84.61
2022-08-12T07:31:37.734Z,83.77
2022-08-12T07:37:25.737Z,83.46
2022-08-12T07:44:04.356Z,82.45
2022-08-12T07:50:06.624Z,81.86
2022-08-12T07:56:29.086Z,80.91
2022-08-12T08:01:49.911Z,79.93
2022-08-12T08:07:38.806Z,79.11
2022-08-12T08:13:24.458Z,77.70
2022-08-12T08:18:53.505Z,76.64
2022-08-12T08:24:28.170Z,75.17
2022-08-12T08:30:19.605Z,73.58
2022-08-12T08:35:57.307Z,72.26
2022-08-12T08:42:18.802Z,72.17
2022-08-12T08:47:44.302Z,71.42
2022-08-12T08:53:36.569Z,70.93
2022-08-12T08:59:04.680Z,70.09
2022-08-12T09:05:07.873Z,69.36
2022-08-12T09:16:23.223Z,67.60
2022-08-12T09:22:04.827Z,67.24
2022-08-12T09:28:15.904Z,66.19
2022-08-12T09:34:27.833Z,64.99
2022-08-12T09:40:02.372Z,63.98
2022-08-12T09:46:19.684Z,62.90
2022-08-12T09:51:22.124Z,61.12
2022-08-12T09:56:58.276Z,60.86
2022-08-12T10:02:45.788Z,59.67
2022-08-12T10:07:39.874Z,58.58
2022-08-12T10:13:12.345Z,57.76
2022-08-12T10:18:51.726Z,57.11
2022-08-12T10:24:25.036Z,56.39
2022-08-12T10:30:38.702Z,55.10
2022-08-12T10:35:54.147Z,53.68
2022-08-12T10:42:29.454Z,53.04
2022-08-12T10:48:20.122Z,51.42
2022-08-12T10:54:22.491Z,51.22
2022-08-12T11:00:30.826Z,50.57
2022-08-12T11:07:09.740Z,49.94
2022-08-12T11:11:13.928Z,49.96
2022-08-12T11:16:27.780Z,48.56
2022-08-12T11:21:58.352Z,48.50
2022-08-12T11:27:22.442Z,48.24
2022-08-12T11:33:11.786Z,48.38
2022-08-12T11:38:20.364Z,47.99
2022-08-12T11:43:25.350Z,47.47
2022-08-12T11:48:57.811Z,46.63
2022-08-12T11:54:04.662Z,46.37
2022-08-12T12:04:37.377Z,45.34
2022-08-12T12:09:52.935Z,45.42
2022-08-12T12:15:07.109Z,45.13
2022-08-12T12:20:12.495Z,45.70
2022-08-12T12:26:07.412Z,45.46
2022-08-12T12:31:14.910Z,44.46
2022-08-12T12:36:54.798Z,43.85
2022-08-12T12:42:43.230Z,43.99
2022-08-12T12:48:10.922Z,44.05
2022-08-12T12:54:07.948Z,43.62
2022-08-12T12:58:44.810Z,43.50
2022-08-12T13:03:55.386Z,43.18
2022-08-12T13:09:03.010Z,42.56
2022-08-12T13:14:12.086Z,41.88
2022-08-12T13:19:38.919Z,41.89
2022-08-12T13:24:54.518Z,42.22
2022-08-12T13:30:23.750Z,42.50
2022-08-12T13:36:05.046Z,42.59
2022-08-12T13:41:37.925Z,42.33
2022-08-12T13:46:58.990Z,41.86
2022-08-12T13:52:15.404Z,41.75
2022-08-12T13:57:46.828Z,42.13
2022-08-12T14:02:53.137Z,42.02
2022-08-12T14:08:08.719Z,42.20
2022-08-12T14:14:06.104Z,42.30
2022-08-12T14:19:21.907Z,42.30
2022-08-12T14:24:35.668Z,42.02
2022-08-12T14:30:04.380Z,41.97
2022-08-12T14:35:41.097Z,41.79
2022-08-12T14:40:53.265Z,41.81
2022-08-12T14:46:19.930Z,41.23
2022-08-12T14:52:44.180Z,41.02
2022-08-12T14:57:20.604Z,41.60
2022-08-12T15:02:15.840Z,41.90
2022-08-12T15:07:43.649Z,41.13
2022-08-12T15:12:52.061Z,41.10
2022-08-12T15:18:02.459Z,41.33
2022-08-12T15:23:18.173Z,41.50
2022-08-12T15:28:30.766Z,41.54
2022-08-12T15:33:44.675Z,41.51
2022-08-12T15:38:48.035Z,41.38
2022-08-12T15:44:15.823Z,40.67
2022-08-12T15:49:19.371Z,40.68
2022-08-12T15:54:44.640Z,41.16
2022-08-12T16:00:03.842Z,41.04
2022-08-12T16:06:15.625Z,40.99
2022-08-12T16:10:53.997Z,41.47
2022-08-12T16:16:23.595Z,41.24
2022-08-12T16:21:50.272Z,41.26
2022-08-12T16:26:54.055Z,41.30
2022-08-12T16:32:07.483Z,41.30
2022-08-12T16:38:24.902Z,41.44
2022-08-12T16:43:37.284Z,41.46
2022-08-12T16:48:39.650Z,41.49
2022-08-12T16:53:45.653Z,41.35
2022-08-12T16:59:00.733Z,41.47
2022-08-12T17:04:14.354Z,42.02
2022-08-12T17:09:39.887Z,42.35
2022-08-12T17:14:47.238Z,43.25
2022-08-12T17:20:34.505Z,43.76
2022-08-12T17:26:06.668Z,44.16
2022-08-12T17:32:01.713Z,44.38
2022-08-12T17:37:04.809Z,44.69
2022-08-12T17:42:51.043Z,45.26
2022-08-12T17:48:17.547Z,45.90
2022-08-12T17:54:10.494Z,46.36
2022-08-12T17:59:47.892Z,46.89
2022-08-12T18:05:55.492Z,47.58
2022-08-12T18:12:03.718Z,48.11
2022-08-12T18:18:51.095Z,48.82
2022-08-12T18:25:06.346Z,49.83
2022-08-12T18:30:43.544Z,50.52
2022-08-12T18:36:50.327Z,51.10
2022-08-12T18:43:02.597Z,51.94
2022-08-12T18:49:34.623Z,52.64
2022-08-12T18:56:06.107Z,53.63
2022-08-12T19:02:19.686Z,54.60
2022-08-12T19:08:24.660Z,55.47
2022-08-12T19:15:18.350Z,56.41
2022-08-12T19:21:32.142Z,57.16
2022-08-12T19:27:08.514Z,57.86
2022-08-12T19:33:39.534Z,58.52
2022-08-12T19:40:31.392Z,59.34
2022-08-12T19:46:18.676Z,59.96
2022-08-12T19:52:32.702Z,60.57
2022-08-12T19:58:41.682Z,60.44
2022-08-12T20:04:38.680Z,61.39
2022-08-12T20:10:35.078Z,61.94
2022-08-12T20:16:04.168Z,62.39
2022-08-12T20:21:48.254Z,62.72
2022-08-12T20:28:31.564Z,63.33
2022-08-12T20:34:48.285Z,63.95
2022-08-12T20:40:58.690Z,64.48
2022-08-12T20:46:37.965Z,64.92
2022-08-12T20:52:29.878Z,65.44
2022-08-12T20:58:31.056Z,65.96
2022-08-12T21:04:36.906Z,66.01
2022-08-12T21:10:26.516Z,66.39
2022-08-12T21:17:34.015Z,67.08
2022-08-12T21:23:59.140Z,67.66
2022-08-12T21:30:12.704Z,67.92
2022-08-12T21:36:48.353Z,68.27
2022-08-12T21:42:27.770Z,68.59
2022-08-12T21:47:37.867Z,69.04
2022-08-12T21:54:07.196Z,69.20
2022-08-12T22:00:35.172Z,69.70
2022-08-12T22:06:42.907Z,70.00
2022-08-12T22:12:54.810Z,70.37
2022-08-12T22:19:03.639Z,70.88
2022-08-12T22:25:09.267Z,71.33
2022-08-12T22:31:30.038Z,71.80
2022-08-12T22:37:53.469Z,72.21
2022-08-12T22:44:54.820Z,72.30
2022-08-12T22:51:59.708Z,72.61
2022-08-12T22:58:18.854Z,73.00
2022-08-12T23:05:00.902Z,73.14
2022-08-12T23:11:08.576Z,73.30
2022-08-12T23:17:21.333Z,73.60
2022-08-12T23:23:26.728Z,73.85
2022-08-12T23:30:18.584Z,74.18
2022-08-12T23:36:17.715Z,74.52
2022-08-12T23:42:17.772Z,74.81
2022-08-12T23:48:31.340Z,75.08
2022-08-12T23:54:32.743Z,75.35
2022-08-12T23:59:48.564Z,75.57
